createdAt,value
2022-12-15T00:00:00.732Z,-5.6
2022-12-15T00:01:00.387Z,-5.6
2022-12-15T00:02:00.935Z,-5.6
2022-12-15T00:03:00.625Z,-5.5
2022-12-15T00:04:01.178Z,-5.4
2022-12-15T00:05:00.817Z,-5.4
2022-12-15T00:06:00.355Z,-5.7
2022-12-15T00:07:01.007Z,-5.9
2022-12-15T00:08:00.596Z,-5.8
2022-12-15T00:09:00.201Z,-5.8
2022-12-15T00:10:00.784Z,-5.8
2022-12-15T00:11:00.386Z,-5.9
2022-12-15T00:12:00.940Z,-5.9
2022-12-15T00:13:00.525Z,-6
2022-12-15T00:14:01.129Z,-6.1
2022-12-15T00:15:00.712Z,-6.1
2022-12-15T00:16:00.351Z,-6
2022-12-15T00:17:00.882Z,-6
2022-12-15T00:18:00.547Z,-6.2
2022-12-15T00:19:01.076Z,-6.2
2022-12-15T00:20:00.660Z,-6.2
2022-12-15T00:21:00.242Z,-6.2
2022-12-15T00:22:00.822Z,-6.3
2022-12-15T00:23:00.401Z,-6.3
2022-12-15T00:24:01.005Z,-6.1
2022-12-15T00:25:00.585Z,-6.2
2022-12-15T00:26:00.166Z,-6.3
2022-12-15T00:27:00.768Z,-6.4
2022-12-15T00:28:00.355Z,-6.2
2022-12-15T00:29:00.937Z,-6.2
2022-12-15T00:30:00.543Z,-6.3
2022-12-15T00:31:02.622Z,-6.3
2022-12-15T00:32:00.471Z,-6.2
2022-12-15T00:33:00.174Z,-6.2
2022-12-15T00:34:00.785Z,-6.2
2022-12-15T00:35:00.388Z,-6.2
2022-12-15T00:36:00.954Z,-6.2
2022-12-15T00:37:00.535Z,-6.2
2022-12-15T00:38:01.119Z,-6.2
2022-12-15T00:39:03.869Z,-6.1
2022-12-15T00:40:00.268Z,-6.1
2022-12-15T00:41:00.873Z,-6
2022-12-15T00:42:00.462Z,-6.1
2022-12-15T00:43:01.041Z,-6.2
2022-12-15T00:44:00.623Z,-6.1
2022-12-15T00:45:00.229Z,-6.1
2022-12-15T00:46:00.802Z,-6.1
2022-12-15T00:47:00.466Z,-6.2
2022-12-15T00:48:00.994Z,-6.1
2022-12-15T00:49:00.586Z,-6.1
2022-12-15T00:50:00.200Z,-6.2
2022-12-15T00:51:00.739Z,-6.1
2022-12-15T00:52:00.344Z,-6.1
2022-12-15T00:53:00.910Z,-6.1
2022-12-15T00:54:00.494Z,-6.1
2022-12-15T00:55:01.071Z,-6.1
2022-12-15T00:56:00.657Z,-6.2
2022-12-15T00:57:00.259Z,-6.1
2022-12-15T00:58:00.821Z,-6.2
2022-12-15T00:59:00.403Z,-6.2
2022-12-15T01:00:00.974Z,-6.1
2022-12-15T01:01:00.557Z,-6
2022-12-15T01:02:01.290Z,-6
2022-12-15T01:03:01.176Z,-6.1
2022-12-15T01:04:00.953Z,-6.1
2022-12-15T01:05:00.573Z,-6.2
2022-12-15T01:06:00.209Z,-6.4
2022-12-15T01:07:00.741Z,-6.2
2022-12-15T01:08:00.325Z,-6.1
2022-12-15T01:09:00.903Z,-6.1
2022-12-15T01:10:00.493Z,-6.1
2022-12-15T01:11:01.092Z,-6.1
2022-12-15T01:12:00.677Z,-6
2022-12-15T01:13:00.260Z,-6.1
2022-12-15T01:14:00.843Z,-5.9
2022-12-15T01:15:00.432Z,-6
2022-12-15T01:16:01.039Z,-6
2022-12-15T01:17:00.673Z,-6.1
2022-12-15T01:18:00.309Z,-6.1
2022-12-15T01:19:00.841Z,-6.2
2022-12-15T01:20:00.450Z,-6.1
2022-12-15T01:21:01.039Z,-6.2
2022-12-15T01:22:00.653Z,-6.2
2022-12-15T01:23:00.194Z,-6.1
2022-12-15T01:24:00.778Z,-6
2022-12-15T01:25:00.362Z,-6.1
2022-12-15T01:26:00.985Z,-6
2022-12-15T01:27:00.596Z,-6
2022-12-15T01:28:00.153Z,-6
2022-12-15T01:29:00.735Z,-6
2022-12-15T01:30:00.327Z,-6.1
2022-12-15T01:31:00.928Z,-6.1
2022-12-15T01:32:00.638Z,-6
2022-12-15T01:33:01.131Z,-6.1
2022-12-15T01:34:00.778Z,-6
2022-12-15T01:35:00.362Z,-6
2022-12-15T01:36:00.946Z,-6
2022-12-15T01:37:00.551Z,-6
2022-12-15T01:38:01.302Z,-5.9
2022-12-15T01:39:00.886Z,-5.8
2022-12-15T01:40:00.348Z,-5.8
2022-12-15T01:41:00.929Z,-5.8
2022-12-15T01:42:00.535Z,-5.7
2022-12-15T01:43:01.083Z,-5.7
2022-12-15T01:44:00.666Z,-5.8
2022-12-15T01:45:00.251Z,-5.8
2022-12-15T01:46:00.830Z,-5.7
2022-12-15T01:47:00.517Z,-5.7
2022-12-15T01:48:01.008Z,-5.8
2022-12-15T01:49:00.592Z,-5.9
2022-12-15T01:50:00.195Z,-5.8
2022-12-15T01:51:00.764Z,-5.8
2022-12-15T01:52:00.378Z,-5.7
2022-12-15T01:53:00.931Z,-5.7
2022-12-15T01:54:00.564Z,-5.6
2022-12-15T01:55:01.109Z,-5.7
2022-12-15T01:56:00.696Z,-5.6
2022-12-15T01:57:00.277Z,-5.7
2022-12-15T01:58:00.856Z,-5.7
2022-12-15T01:59:00.463Z,-5.7
2022-12-15T02:00:01.019Z,-5.7
2022-12-15T02:01:00.684Z,-5.6
2022-12-15T02:02:00.354Z,-5.7
2022-12-15T02:03:00.877Z,-5.7
2022-12-15T02:04:00.418Z,-5.6
2022-12-15T02:05:00.975Z,-5.7
2022-12-15T02:06:00.562Z,-5.7
2022-12-15T02:07:01.138Z,-5.7
2022-12-15T02:08:00.727Z,-5.7
2022-12-15T02:09:00.332Z,-5.7
2022-12-15T02:10:00.916Z,-5.7
2022-12-15T02:11:00.497Z,-5.7
2022-12-15T02:12:01.068Z,-5.6
2022-12-15T02:13:00.651Z,-5.7
2022-12-15T02:14:00.242Z,-5.7
2022-12-15T02:15:00.796Z,-5.6
2022-12-15T02:16:00.408Z,-5.6
2022-12-15T02:17:00.962Z,-5.6
2022-12-15T02:18:00.543Z,-5.6
2022-12-15T02:19:00.190Z,-5.5
2022-12-15T02:20:00.702Z,-5.5
2022-12-15T02:21:00.286Z,-5.5
2022-12-15T02:22:00.869Z,-5.5
2022-12-15T02:23:00.451Z,-5.6
2022-12-15T02:24:01.058Z,-5.5
2022-12-15T02:25:00.643Z,-5.5
2022-12-15T02:26:00.278Z,-5.6
2022-12-15T02:27:00.814Z,-5.6
2022-12-15T02:28:00.400Z,-5.7
2022-12-15T02:29:01.007Z,-5.7
2022-12-15T02:30:00.594Z,-5.6
2022-12-15T02:31:00.164Z,-5.6
2022-12-15T02:32:00.825Z,-5.6
2022-12-15T02:33:00.400Z,-5.5
2022-12-15T02:34:01.001Z,-5.6
2022-12-15T02:35:00.586Z,-5.5
2022-12-15T02:36:00.179Z,-5.5
2022-12-15T02:37:00.731Z,-5.5
2022-12-15T02:38:00.316Z,-5.5
2022-12-15T02:39:00.900Z,-5.4
2022-12-15T02:40:00.503Z,-5.4
2022-12-15T02:41:01.146Z,-5.5
2022-12-15T02:42:00.769Z,-5.5
2022-12-15T02:43:00.316Z,-5.4
2022-12-15T02:44:00.886Z,-5.4
2022-12-15T02:45:00.471Z,-5.4
2022-12-15T02:46:01.145Z,-5.4
2022-12-15T02:47:00.699Z,-5.4
2022-12-15T02:48:00.276Z,-5.4
2022-12-15T02:49:00.850Z,-5.5
2022-12-15T02:50:00.441Z,-5.5
2022-12-15T02:51:01.040Z,-5.6
2022-12-15T02:52:00.687Z,-5.5
2022-12-15T02:53:00.256Z,-5.5
2022-12-15T02:54:00.828Z,-5.5
2022-12-15T02:55:00.414Z,-5.5
2022-12-15T02:56:01.005Z,-5.4
2022-12-15T02:57:00.611Z,-5.4
2022-12-15T02:58:00.270Z,-5.3
2022-12-15T02:59:00.761Z,-5.3
2022-12-15T03:00:00.351Z,-5.3
2022-12-15T03:01:01.015Z,-5.4
2022-12-15T03:02:00.739Z,-5.3
2022-12-15T03:03:00.308Z,-5.3
2022-12-15T03:04:00.752Z,-5.3
2022-12-15T03:05:00.339Z,-5.4
2022-12-15T03:06:00.922Z,-5.4
2022-12-15T03:07:01.313Z,-5.5
2022-12-15T03:08:01.109Z,-5.5
2022-12-15T03:09:00.716Z,-5.5
2022-12-15T03:10:00.300Z,-5.6
2022-12-15T03:11:00.876Z,-5.6
2022-12-15T03:12:00.460Z,-5.5
2022-12-15T03:13:01.065Z,-5.4
2022-12-15T03:14:00.678Z,-5.3
2022-12-15T03:15:00.237Z,-5.4
2022-12-15T03:16:00.919Z,-5.5
2022-12-15T03:17:00.553Z,-5.5
2022-12-15T03:18:01.080Z,-5.6
2022-12-15T03:19:00.720Z,-5.6
2022-12-15T03:20:00.312Z,-5.6
2022-12-15T03:21:00.888Z,-5.5
2022-12-15T03:22:00.490Z,-5.5
2022-12-15T03:23:01.063Z,-5.4
2022-12-15T03:24:00.667Z,-5.6
2022-12-15T03:25:00.253Z,-5.5
2022-12-15T03:26:00.839Z,-5.6
2022-12-15T03:27:00.425Z,-5.5
2022-12-15T03:28:01.005Z,-5.5
2022-12-15T03:29:00.612Z,-5.5
2022-12-15T03:30:00.204Z,-5.5
2022-12-15T03:31:00.764Z,-5.5
2022-12-15T03:32:00.458Z,-5.5
2022-12-15T03:33:00.921Z,-5.5
2022-12-15T03:34:00.541Z,-5.4
2022-12-15T03:35:01.111Z,-5.3
2022-12-15T03:36:00.711Z,-5.3
2022-12-15T03:37:00.296Z,-5.4
2022-12-15T03:38:00.882Z,-5.4
2022-12-15T03:39:00.466Z,-5.4
2022-12-15T03:40:01.071Z,-5.3
2022-12-15T03:41:00.656Z,-5.3
2022-12-15T03:42:00.247Z,-5.4
2022-12-15T03:43:00.808Z,-5.3
2022-12-15T03:44:00.391Z,-5.3
2022-12-15T03:45:00.985Z,-5.4
2022-12-15T03:46:00.643Z,-5.4
2022-12-15T03:47:03.410Z,-5.4
2022-12-15T03:48:00.813Z,-5.3
2022-12-15T03:49:00.371Z,-5.3
2022-12-15T03:50:00.979Z,-5.2
2022-12-15T03:51:00.581Z,-5.2
2022-12-15T03:52:00.164Z,-5.2
2022-12-15T03:53:00.721Z,-5.2
2022-12-15T03:54:00.317Z,-5.2
2022-12-15T03:55:00.926Z,-5.2
2022-12-15T03:56:00.508Z,-5.1
2022-12-15T03:57:01.093Z,-5.2
2022-12-15T03:58:00.677Z,-5.3
2022-12-15T03:59:00.261Z,-5.3
2022-12-15T04:00:00.864Z,-5.4
2022-12-15T04:01:00.480Z,-5.3
2022-12-15T04:02:01.253Z,-5.3
2022-12-15T04:03:00.791Z,-5.3
2022-12-15T04:04:01.355Z,-5.3
2022-12-15T04:05:00.268Z,-5.3
2022-12-15T04:06:00.855Z,-5.3
2022-12-15T04:07:01.097Z,-5.2
2022-12-15T04:08:00.691Z,-5.3
2022-12-15T04:09:00.281Z,-5.3
2022-12-15T04:10:00.889Z,-5.3
2022-12-15T04:11:00.535Z,-5.3
2022-12-15T04:12:01.086Z,-5.3
2022-12-15T04:13:00.688Z,-5.2
2022-12-15T04:14:00.273Z,-5.2
2022-12-15T04:15:00.877Z,-5.2
2022-12-15T04:16:00.459Z,-5.2
2022-12-15T04:17:01.074Z,-5.3
2022-12-15T04:18:00.715Z,-5.4
2022-12-15T04:19:00.275Z,-5.3
2022-12-15T04:20:00.921Z,-5.3
2022-12-15T04:21:00.505Z,-5.3
2022-12-15T04:22:01.106Z,-5.3
2022-12-15T04:23:00.686Z,-5.2
2022-12-15T04:24:00.273Z,-5.2
2022-12-15T04:25:00.845Z,-5.2
2022-12-15T04:26:00.426Z,-5.2
2022-12-15T04:27:01.028Z,-5.2
2022-12-15T04:28:01.772Z,-5.2
2022-12-15T04:29:00.534Z,-5.2
2022-12-15T04:30:00.783Z,-5.2
2022-12-15T04:31:00.448Z,-5.1
2022-12-15T04:32:00.968Z,-5.1
2022-12-15T04:33:00.550Z,-5.1
2022-12-15T04:34:01.152Z,-5
2022-12-15T04:35:00.741Z,-5
2022-12-15T04:36:00.320Z,-5
2022-12-15T04:37:00.924Z,-5
2022-12-15T04:38:00.511Z,-5
2022-12-15T04:39:01.098Z,-5.1
2022-12-15T04:40:00.685Z,-5.1
2022-12-15T04:41:00.283Z,-5.1
2022-12-15T04:42:00.881Z,-5.1
2022-12-15T04:43:00.465Z,-5.1
2022-12-15T04:44:01.040Z,-5.2
2022-12-15T04:45:00.621Z,-5.2
2022-12-15T04:46:00.289Z,-5.2
2022-12-15T04:47:00.798Z,-5.2
2022-12-15T04:48:00.381Z,-5.2
2022-12-15T04:49:00.953Z,-5.3
2022-12-15T04:50:00.571Z,-5.3
2022-12-15T04:51:01.110Z,-5.2
2022-12-15T04:52:00.718Z,-5.2
2022-12-15T04:53:00.319Z,-5.2
2022-12-15T04:54:00.890Z,-5.3
2022-12-15T04:55:00.474Z,-5.3
2022-12-15T04:56:01.062Z,-5.5
2022-12-15T04:57:00.683Z,-5.5
2022-12-15T04:58:00.264Z,-5.6
2022-12-15T04:59:00.847Z,-5.6
2022-12-15T05:00:00.429Z,-5.6
2022-12-15T05:01:01.069Z,-5.6
2022-12-15T05:02:00.822Z,-5.7
2022-12-15T05:03:00.242Z,-5.7
2022-12-15T05:04:00.889Z,-5.7
2022-12-15T05:05:00.477Z,-5.6
2022-12-15T05:06:01.074Z,-5.6
2022-12-15T05:07:00.682Z,-5.6
2022-12-15T05:08:00.241Z,-5.6
2022-12-15T05:09:00.820Z,-5.6
2022-12-15T05:10:03.070Z,-5.6
2022-12-15T05:11:00.942Z,-5.6
2022-12-15T05:12:00.541Z,-5.6
2022-12-15T05:13:01.092Z,-5.6
2022-12-15T05:14:00.750Z,-5.6
2022-12-15T05:15:00.318Z,-5.6
2022-12-15T05:16:00.979Z,-5.5
2022-12-15T05:17:00.607Z,-5.6
2022-12-15T05:18:01.122Z,-5.5
2022-12-15T05:19:00.704Z,-5.6
2022-12-15T05:20:00.289Z,-5.6
2022-12-15T05:21:00.910Z,-5.6
2022-12-15T05:22:00.534Z,-5.7
2022-12-15T05:23:01.094Z,-5.7
2022-12-15T05:24:00.678Z,-5.7
2022-12-15T05:25:00.260Z,-5.7
2022-12-15T05:26:00.841Z,-5.6
2022-12-15T05:27:00.425Z,-5.6
2022-12-15T05:28:01.018Z,-5.6
2022-12-15T05:29:00.622Z,-5.5
2022-12-15T05:30:00.217Z,-5.5
2022-12-15T05:31:00.879Z,-5.5
2022-12-15T05:32:00.452Z,-5.4
2022-12-15T05:33:01.047Z,-5.4
2022-12-15T05:34:05.029Z,-5.4
2022-12-15T05:35:00.212Z,-5.5
2022-12-15T05:36:00.793Z,-5.5
2022-12-15T05:37:00.375Z,-5.6
2022-12-15T05:38:00.991Z,-5.6
2022-12-15T05:39:00.585Z,-5.6
2022-12-15T05:40:00.160Z,-5.6
2022-12-15T05:41:00.731Z,-5.6
2022-12-15T05:42:00.313Z,-5.5
2022-12-15T05:43:00.913Z,-5.5
2022-12-15T05:44:00.492Z,-5.5
2022-12-15T05:45:01.068Z,-5.6
2022-12-15T05:46:00.683Z,-5.5
2022-12-15T05:47:00.281Z,-5.5
2022-12-15T05:48:00.876Z,-5.5
2022-12-15T05:49:00.462Z,-5.4
2022-12-15T05:50:01.042Z,-5.5
2022-12-15T05:51:00.622Z,-5.4
2022-12-15T05:52:00.206Z,-5.4
2022-12-15T05:53:00.798Z,-5.4
2022-12-15T05:54:00.409Z,-5.5
2022-12-15T05:55:00.958Z,-5.5
2022-12-15T05:56:00.545Z,-5.7
2022-12-15T05:57:01.119Z,-5.8
2022-12-15T05:58:00.719Z,-5.7
2022-12-15T05:59:00.381Z,-5.7
2022-12-15T06:00:00.937Z,-5.6
2022-12-15T06:01:00.522Z,-5.6
2022-12-15T06:02:01.197Z,-5.7
2022-12-15T06:03:00.901Z,-5.7
2022-12-15T06:04:00.340Z,-5.7
2022-12-15T06:05:00.955Z,-5.7
2022-12-15T06:06:00.570Z,-5.8
2022-12-15T06:07:00.138Z,-6
2022-12-15T06:08:00.726Z,-5.8
2022-12-15T06:09:00.335Z,-5.9
2022-12-15T06:10:00.929Z,-5.8
2022-12-15T06:11:00.510Z,-5.8
2022-12-15T06:12:01.084Z,-5.8
2022-12-15T06:13:00.667Z,-5.8
2022-12-15T06:14:00.271Z,-5.9
2022-12-15T06:15:00.828Z,-5.9
2022-12-15T06:16:00.469Z,-5.9
2022-12-15T06:17:01.024Z,-5.8
2022-12-15T06:18:00.631Z,-5.7
2022-12-15T06:19:00.238Z,-5.7
2022-12-15T06:20:00.799Z,-5.8
2022-12-15T06:21:00.457Z,-5.9
2022-12-15T06:22:00.965Z,-5.9
2022-12-15T06:23:00.547Z,-6
2022-12-15T06:24:00.154Z,-6
2022-12-15T06:25:00.720Z,-6
2022-12-15T06:26:00.326Z,-5.9
2022-12-15T06:27:00.892Z,-5.8
2022-12-15T06:28:01.951Z,-5.7
2022-12-15T06:29:00.689Z,-5.7
2022-12-15T06:30:00.279Z,-5.6
2022-12-15T06:31:00.904Z,-5.7
2022-12-15T06:32:00.525Z,-5.8
2022-12-15T06:33:01.157Z,-5.9
2022-12-15T06:34:02.234Z,-6
2022-12-15T06:35:00.203Z,-6
2022-12-15T06:36:00.786Z,-6
2022-12-15T06:37:00.368Z,-6
2022-12-15T06:38:00.950Z,-5.9
2022-12-15T06:39:00.583Z,-5.9
2022-12-15T06:40:01.105Z,-5.9
2022-12-15T06:41:00.694Z,-5.9
2022-12-15T06:42:00.306Z,-5.9
2022-12-15T06:43:00.887Z,-6
2022-12-15T06:44:00.518Z,-5.9
2022-12-15T06:45:01.049Z,-6
2022-12-15T06:46:00.630Z,-6
2022-12-15T06:47:00.334Z,-5.9
2022-12-15T06:48:01.587Z,-5.9
2022-12-15T06:49:00.408Z,-5.9
2022-12-15T06:50:01.010Z,-5.8
2022-12-15T06:51:00.641Z,-5.9
2022-12-15T06:52:00.182Z,-6
2022-12-15T06:53:00.758Z,-6.1
2022-12-15T06:54:00.342Z,-6.2
2022-12-15T06:55:00.943Z,-6.1
2022-12-15T06:56:00.528Z,-6.2
2022-12-15T06:57:01.099Z,-6.1
2022-12-15T06:58:00.708Z,-6.1
2022-12-15T06:59:00.317Z,-6.1
2022-12-15T07:00:00.921Z,-6.1
2022-12-15T07:01:00.508Z,-6.1
2022-12-15T07:02:01.253Z,-6.1
2022-12-15T07:03:01.185Z,-6
2022-12-15T07:04:01.123Z,-6
2022-12-15T07:05:00.862Z,-5.9
2022-12-15T07:06:00.446Z,-5.8
2022-12-15T07:07:01.047Z,-5.7
2022-12-15T07:08:00.628Z,-5.6
2022-12-15T07:09:00.215Z,-5.7
2022-12-15T07:10:00.798Z,-5.7
2022-12-15T07:11:00.407Z,-5.7
2022-12-15T07:12:01.011Z,-5.7
2022-12-15T07:13:00.592Z,-5.7
2022-12-15T07:14:00.196Z,-5.7
2022-12-15T07:15:00.756Z,-5.7
2022-12-15T07:16:00.384Z,-5.9
2022-12-15T07:17:00.944Z,-6
2022-12-15T07:18:00.532Z,-6
2022-12-15T07:19:01.111Z,-5.9
2022-12-15T07:20:00.692Z,-5.8
2022-12-15T07:21:00.278Z,-5.8
2022-12-15T07:22:00.923Z,-5.7
2022-12-15T07:23:00.530Z,-5.8
2022-12-15T07:24:02.015Z,-5.8
2022-12-15T07:25:00.991Z,-5.9
2022-12-15T07:26:00.343Z,-5.9
2022-12-15T07:27:00.923Z,-5.8
2022-12-15T07:28:00.559Z,-5.8
2022-12-15T07:29:01.090Z,-5.8
2022-12-15T07:30:00.718Z,-6
2022-12-15T07:31:00.389Z,-6
2022-12-15T07:32:01.042Z,-5.9
2022-12-15T07:33:00.565Z,-5.8
2022-12-15T07:34:01.117Z,-5.8
2022-12-15T07:35:00.733Z,-5.7
2022-12-15T07:36:00.318Z,-5.5
2022-12-15T07:37:00.902Z,-5.4
2022-12-15T07:38:00.530Z,-5.4
2022-12-15T07:39:01.211Z,-5.3
2022-12-15T07:40:00.817Z,-5.2
2022-12-15T07:41:00.315Z,-5.5
2022-12-15T07:42:00.902Z,-5.5
2022-12-15T07:43:00.516Z,-5.5
2022-12-15T07:44:01.081Z,-5.5
2022-12-15T07:45:00.662Z,-5.5
2022-12-15T07:46:00.421Z,-5.5
2022-12-15T07:47:00.827Z,-5.4
2022-12-15T07:48:00.430Z,-5.3
2022-12-15T07:49:00.984Z,-5.4
2022-12-15T07:50:00.567Z,-5.7
2022-12-15T07:51:07.646Z,-5.6
2022-12-15T07:52:00.694Z,-5.7
2022-12-15T07:53:00.368Z,-5.8
2022-12-15T07:54:00.935Z,-5.8
2022-12-15T07:55:00.545Z,-5.8
2022-12-15T07:56:09.507Z,-5.9
2022-12-15T07:57:00.734Z,-5.8
2022-12-15T07:58:00.421Z,-5.9
2022-12-15T07:59:01.094Z,-5.9
2022-12-15T08:00:00.422Z,-5.8
2022-12-15T08:01:01.045Z,-5.7
2022-12-15T08:02:00.883Z,-5.5
2022-12-15T08:03:00.442Z,-5.4
2022-12-15T08:04:00.894Z,-5.3
2022-12-15T08:05:00.473Z,-5.4
2022-12-15T08:06:04.110Z,-5.4
2022-12-15T08:07:00.593Z,-5.5
2022-12-15T08:08:00.200Z,-5.5
2022-12-15T08:09:00.763Z,-5.6
2022-12-15T08:10:00.344Z,-5.5
2022-12-15T08:11:00.924Z,-5.4
2022-12-15T08:12:00.509Z,-5.4
2022-12-15T08:13:01.109Z,-5.4
2022-12-15T08:14:02.879Z,-5.5
2022-12-15T08:15:00.252Z,-5.5
2022-12-15T08:16:00.850Z,-5.5
2022-12-15T08:17:00.516Z,-5.4
2022-12-15T08:18:01.076Z,-5.4
2022-12-15T08:19:00.697Z,-5.5
2022-12-15T08:20:03.477Z,-5.4
2022-12-15T08:21:00.770Z,-5.4
2022-12-15T08:22:00.353Z,-5.3
2022-12-15T08:23:00.990Z,-5.4
2022-12-15T08:24:00.591Z,-5.4
2022-12-15T08:25:00.166Z,-5.4
2022-12-15T08:26:00.731Z,-5.3
2022-12-15T08:27:00.316Z,-5.3
2022-12-15T08:28:00.899Z,-5.2
2022-12-15T08:29:12.041Z,-5.3
2022-12-15T08:30:01.070Z,-5.2
2022-12-15T08:31:00.653Z,-5.3
2022-12-15T08:32:00.324Z,-5.2
2022-12-15T08:33:00.818Z,-5.2
2022-12-15T08:34:00.445Z,-5.1
2022-12-15T08:35:00.989Z,-5.1
2022-12-15T08:36:00.571Z,-5
2022-12-15T08:37:00.156Z,-4.9
2022-12-15T08:38:05.150Z,-4.7
2022-12-15T08:39:00.298Z,-4.8
2022-12-15T08:40:00.879Z,-4.7
2022-12-15T08:41:00.462Z,-4.7
2022-12-15T08:42:01.054Z,-4.7
2022-12-15T08:43:00.637Z,-4.7
2022-12-15T08:44:00.233Z,-4.7
2022-12-15T08:45:00.783Z,-4.6
2022-12-15T08:46:00.466Z,-4.5
2022-12-15T08:47:00.961Z,-4.6
2022-12-15T08:48:00.551Z,-4.7
2022-12-15T08:49:00.158Z,-4.5
2022-12-15T08:50:00.838Z,-4.4
2022-12-15T08:51:00.381Z,-4.4
2022-12-15T08:52:00.963Z,-4.3
2022-12-15T08:53:29.349Z,-4.2
2022-12-15T08:54:01.104Z,-4.2
2022-12-15T08:55:00.685Z,-4.2
2022-12-15T08:56:00.273Z,-4.1
2022-12-15T08:57:00.878Z,-4.1
2022-12-15T08:58:00.464Z,-3.9
2022-12-15T08:59:01.046Z,-3.9
2022-12-15T09:00:00.631Z,-3.8
2022-12-15T09:01:00.435Z,-3.7
2022-12-15T09:02:00.952Z,-3.6
2022-12-15T09:03:00.480Z,-3.6
2022-12-15T09:04:01.064Z,-3.5
2022-12-15T09:05:00.656Z,-3.5
2022-12-15T09:06:00.266Z,-3.5
2022-12-15T09:07:00.843Z,-3.4
2022-12-15T09:08:04.732Z,-3.5
2022-12-15T09:09:00.973Z,-3.6
2022-12-15T09:10:00.555Z,-3.5
2022-12-15T09:11:00.151Z,-3.5
2022-12-15T09:12:00.732Z,-3.5
2022-12-15T09:13:00.316Z,-3.4
2022-12-15T09:14:00.895Z,-3.4
2022-12-15T09:15:00.505Z,-3.4
2022-12-15T09:16:10.165Z,-3.4
2022-12-15T09:17:00.711Z,-3.5
2022-12-15T09:18:00.310Z,-3.4
2022-12-15T09:19:00.893Z,-3.3
2022-12-15T09:20:00.477Z,-3.3
2022-12-15T09:21:01.062Z,-3.2
2022-12-15T09:22:00.695Z,-3.2
2022-12-15T09:23:00.279Z,-3.2
2022-12-15T09:24:01.038Z,-3.1
2022-12-15T09:25:00.511Z,-3
2022-12-15T09:26:01.093Z,-2.9
2022-12-15T09:27:00.697Z,-2.9
2022-12-15T09:28:00.324Z,-3
2022-12-15T09:29:00.928Z,-3
2022-12-15T09:30:00.513Z,-3
2022-12-15T09:31:01.119Z,-2.9
2022-12-15T09:32:00.756Z,-2.9
2022-12-15T09:33:00.323Z,-2.9
2022-12-15T09:34:00.916Z,-2.8
2022-12-15T09:35:00.528Z,-2.7
2022-12-15T09:36:01.096Z,-2.7
2022-12-15T09:37:00.681Z,-2.8
2022-12-15T09:38:00.287Z,-2.7
2022-12-15T09:39:00.839Z,-2.7
2022-12-15T09:40:00.445Z,-2.7
2022-12-15T09:41:01.008Z,-2.7
2022-12-15T09:42:00.591Z,-2.8
2022-12-15T09:43:32.673Z,-2.8
2022-12-15T09:44:00.703Z,-2.8
2022-12-15T09:45:00.311Z,-2.8
2022-12-15T09:46:00.898Z,-2.7
2022-12-15T09:47:00.518Z,-2.6
2022-12-15T09:48:01.096Z,-2.6
2022-12-15T09:49:00.681Z,-2.6
2022-12-15T09:50:00.295Z,-2.6
2022-12-15T09:51:00.843Z,-2.5
2022-12-15T09:52:01.040Z,-2.5
2022-12-15T09:53:00.297Z,-2.4
2022-12-15T09:54:01.425Z,-2.3
2022-12-15T09:55:00.292Z,-2.2
2022-12-15T09:56:00.837Z,-2.2
2022-12-15T09:57:00.420Z,-2.2
2022-12-15T09:58:03.712Z,-2.2
2022-12-15T09:59:00.538Z,-2.2
2022-12-15T10:00:00.142Z,-2.2
2022-12-15T10:01:00.694Z,-2.1
2022-12-15T10:02:00.368Z,-2.2
2022-12-15T10:03:01.073Z,-2.3
2022-12-15T10:04:00.771Z,-2.2
2022-12-15T10:05:01.099Z,-2.2
2022-12-15T10:06:18.174Z,-2.3
2022-12-15T10:07:00.246Z,-2.4
2022-12-15T10:08:00.833Z,-2.4
2022-12-15T10:09:00.417Z,-2.2
2022-12-15T10:10:01.111Z,-2.1
2022-12-15T10:11:00.673Z,-2
2022-12-15T10:12:00.268Z,-2.1
2022-12-15T10:13:02.421Z,-2
2022-12-15T10:14:00.279Z,-2
2022-12-15T10:15:00.861Z,-1.9
2022-12-15T10:16:00.549Z,-1.9
2022-12-15T10:17:01.035Z,-1.8
2022-12-15T10:18:00.618Z,-1.7
2022-12-15T10:19:01.801Z,-1.6
2022-12-15T10:20:00.661Z,-1.5
2022-12-15T10:21:00.255Z,-1.4
2022-12-15T10:22:00.852Z,-1.3
2022-12-15T10:23:00.437Z,-1.3
2022-12-15T10:24:01.116Z,-1.2
2022-12-15T10:25:09.532Z,-1.2
2022-12-15T10:26:00.267Z,-1.1
2022-12-15T10:27:00.859Z,-1
2022-12-15T10:28:00.451Z,-0.9
2022-12-15T10:29:01.029Z,-1
2022-12-15T10:30:00.737Z,-1
2022-12-15T10:31:00.385Z,-1
2022-12-15T10:32:00.852Z,-1
2022-12-15T10:33:00.437Z,-1
2022-12-15T10:34:01.032Z,-1
2022-12-15T10:35:00.729Z,-1
2022-12-15T10:36:00.200Z,-0.9
2022-12-15T10:37:00.782Z,-0.8
2022-12-15T10:38:00.365Z,-0.8
2022-12-15T10:39:00.954Z,-0.8
2022-12-15T10:40:00.563Z,-0.8
2022-12-15T10:41:00.117Z,-0.7
2022-12-15T10:42:00.723Z,-0.8
2022-12-15T10:43:00.332Z,-0.9
2022-12-15T10:44:00.890Z,-0.9
2022-12-15T10:45:00.494Z,-0.9
2022-12-15T10:46:01.121Z,-0.9
2022-12-15T10:47:00.776Z,-0.8
2022-12-15T10:48:00.301Z,-0.7
2022-12-15T10:49:00.879Z,-0.7
2022-12-15T10:50:00.485Z,-0.7
2022-12-15T10:51:01.046Z,-0.6
2022-12-15T10:52:00.633Z,-0.6
2022-12-15T10:53:00.225Z,-0.6
2022-12-15T10:54:00.795Z,-0.6
2022-12-15T10:55:00.409Z,-0.5
2022-12-15T10:56:00.964Z,-0.5
2022-12-15T10:57:00.547Z,-0.6
2022-12-15T10:58:00.156Z,-0.5
2022-12-15T10:59:00.712Z,-0.4
2022-12-15T11:00:00.315Z,-0.3
2022-12-15T11:01:00.881Z,-0.4
2022-12-15T11:02:00.621Z,-0.4
2022-12-15T11:03:01.477Z,-0.4
2022-12-15T11:04:00.541Z,-0.4
2022-12-15T11:05:00.307Z,-0.4
2022-12-15T11:06:00.871Z,-0.4
2022-12-15T11:07:00.496Z,-0.4
2022-12-15T11:08:01.036Z,-0.3
2022-12-15T11:09:00.621Z,-0.2
2022-12-15T11:10:00.202Z,-0.2
2022-12-15T11:11:00.785Z,-0.2
2022-12-15T11:12:00.390Z,-0.2
2022-12-15T11:13:00.939Z,-0.2
2022-12-15T11:14:00.556Z,-0.2
2022-12-15T11:15:01.091Z,-0.1
2022-12-15T11:16:00.674Z,0
2022-12-15T11:17:00.281Z,0
2022-12-15T11:18:00.852Z,-0.1
2022-12-15T11:19:00.472Z,-0.1
2022-12-15T11:20:02.918Z,-0.1
2022-12-15T11:21:00.579Z,-0.1
2022-12-15T11:22:00.186Z,-0.1
2022-12-15T11:23:00.735Z,0
2022-12-15T11:24:00.342Z,-0.1
2022-12-15T11:25:00.954Z,-0.1
2022-12-15T11:26:06.586Z,-0.1
2022-12-15T11:27:01.079Z,-0.1
2022-12-15T11:28:00.664Z,-0.1
2022-12-15T11:29:00.274Z,-0.1
2022-12-15T11:30:00.860Z,0
2022-12-15T11:31:00.445Z,0
2022-12-15T11:32:06.622Z,-0.1
2022-12-15T11:33:00.561Z,-0.2
2022-12-15T11:34:00.176Z,0
2022-12-15T11:35:00.732Z,-0.1
2022-12-15T11:36:00.315Z,0
2022-12-15T11:37:00.903Z,0
2022-12-15T11:38:00.488Z,0.1
2022-12-15T11:39:01.180Z,0
2022-12-15T11:40:00.799Z,0
2022-12-15T11:41:00.318Z,0
2022-12-15T11:42:00.903Z,0
2022-12-15T11:43:00.488Z,0
2022-12-15T11:44:06.167Z,0
2022-12-15T11:45:00.634Z,0.1
2022-12-15T11:46:00.250Z,0.2
2022-12-15T11:47:00.806Z,0.2
2022-12-15T11:48:00.388Z,0.2
2022-12-15T11:49:00.995Z,0.1
2022-12-15T11:50:00.596Z,0.1
2022-12-15T11:51:00.166Z,0.2
2022-12-15T11:52:00.767Z,0.1
2022-12-15T11:53:00.356Z,0.2
2022-12-15T11:54:00.959Z,0.3
2022-12-15T11:55:00.586Z,0.3
2022-12-15T11:56:00.175Z,0.3
2022-12-15T11:57:00.760Z,0.3
2022-12-15T11:58:00.345Z,0.3
2022-12-15T11:59:00.950Z,0.3
2022-12-15T12:00:00.552Z,0.3
2022-12-15T12:01:00.114Z,0.3
2022-12-15T12:03:00.316Z,0.3
2022-12-15T12:04:00.952Z,0.4
2022-12-15T12:05:00.556Z,0.5
2022-12-15T12:06:00.129Z,0.5
2022-12-15T12:07:00.725Z,0.6
2022-12-15T12:08:00.317Z,0.6
2022-12-15T12:09:00.899Z,0.6
2022-12-15T12:10:00.505Z,0.6
2022-12-15T12:11:01.103Z,0.7
2022-12-15T12:12:00.739Z,0.8
2022-12-15T12:13:00.309Z,0.8
2022-12-15T12:14:00.893Z,0.6
2022-12-15T12:15:00.496Z,0.7
2022-12-15T12:16:01.091Z,0.7
2022-12-15T12:17:00.685Z,0.7
2022-12-15T12:18:00.298Z,0.7
2022-12-15T12:19:00.892Z,0.7
2022-12-15T12:20:00.512Z,0.7
2022-12-15T12:21:01.114Z,0.8
2022-12-15T12:22:00.697Z,0.8
2022-12-15T12:23:00.280Z,0.9
2022-12-15T12:24:00.870Z,0.8
2022-12-15T12:25:00.453Z,0.8
2022-12-15T12:26:03.123Z,0.8
2022-12-15T12:27:00.654Z,0.8
2022-12-15T12:28:00.239Z,0.8
2022-12-15T12:29:00.813Z,0.7
2022-12-15T12:30:00.400Z,0.7
2022-12-15T12:31:01.002Z,0.8
2022-12-15T12:32:04.724Z,0.8
2022-12-15T12:33:00.158Z,0.8
2022-12-15T12:34:00.770Z,0.8
2022-12-15T12:35:29.950Z,0.8
2022-12-15T12:36:00.897Z,0.8
2022-12-15T12:37:00.624Z,0.8
2022-12-15T12:38:03.199Z,0.8
2022-12-15T12:39:00.717Z,0.8
2022-12-15T12:40:00.302Z,0.8
2022-12-15T12:41:00.877Z,0.8
2022-12-15T12:42:00.484Z,0.8
2022-12-15T12:43:01.044Z,0.8
2022-12-15T12:44:00.638Z,0.8
2022-12-15T12:45:00.231Z,0.9
2022-12-15T12:46:00.802Z,0.9
2022-12-15T12:47:00.406Z,0.9
2022-12-15T12:48:00.954Z,0.9
2022-12-15T12:49:00.569Z,1
2022-12-15T12:50:00.162Z,0.9
2022-12-15T12:51:00.693Z,1
2022-12-15T12:52:00.281Z,0.8
2022-12-15T12:53:00.867Z,0.9
2022-12-15T12:54:00.470Z,0.9
2022-12-15T12:55:01.041Z,1
2022-12-15T12:56:00.632Z,1
2022-12-15T12:57:00.237Z,1
2022-12-15T12:58:00.839Z,1.1
2022-12-15T12:59:00.425Z,1.1
2022-12-15T13:00:00.999Z,1.1
2022-12-15T13:01:00.785Z,1.1
2022-12-15T13:02:00.261Z,1.2
2022-12-15T13:03:00.837Z,1.1
2022-12-15T13:04:00.440Z,1
2022-12-15T13:05:01.000Z,1
2022-12-15T13:06:00.633Z,1
2022-12-15T13:07:00.166Z,1
2022-12-15T13:08:00.748Z,1.1
2022-12-15T13:09:00.351Z,1
2022-12-15T13:10:00.941Z,1.1
2022-12-15T13:11:00.525Z,1.1
2022-12-15T13:12:06.497Z,1.1
2022-12-15T13:13:00.641Z,1.4
2022-12-15T13:14:00.224Z,1.3
2022-12-15T13:15:00.829Z,1.3
2022-12-15T13:16:00.409Z,1.2
2022-12-15T13:17:25.281Z,1.2
2022-12-15T13:18:00.533Z,1.2
2022-12-15T13:19:00.119Z,1.2
2022-12-15T13:20:00.779Z,1.3
2022-12-15T13:21:00.362Z,1.3
2022-12-15T13:22:01.018Z,1.3
2022-12-15T13:23:00.588Z,1.3
2022-12-15T13:24:00.172Z,1.3
2022-12-15T13:25:00.780Z,1.4
2022-12-15T13:26:00.405Z,1.5
2022-12-15T13:27:01.039Z,1.4
2022-12-15T13:28:00.648Z,1.5